createdAt,value
2023-01-09T00:01:40.152Z,97500.07
2023-01-09T00:04:09.006Z,97498.84
2023-01-09T00:06:37.568Z,97502.14
2023-01-09T00:09:07.102Z,97499.21
2023-01-09T00:11:35.326Z,97492.85
2023-01-09T00:14:04.754Z,97492.34
2023-01-09T00:16:32.844Z,97484.42
2023-01-09T00:19:01.145Z,97482.89
2023-01-09T00:21:29.045Z,97487.19
2023-01-09T00:23:57.146Z,97495.15
2023-01-09T00:26:25.149Z,97500.48
2023-01-09T00:28:54.258Z,97502.55
2023-01-09T00:31:22.827Z,97495.50
2023-01-09T00:34:03.384Z,97494.01
2023-01-09T00:36:32.354Z,97487.19
2023-01-09T00:39:00.598Z,97487.75
2023-01-09T00:41:35.254Z,97489.71
2023-01-09T00:44:10.439Z,97489.42
2023-01-09T00:46:44.403Z,97488.26
2023-01-09T00:49:14.744Z,97489.67
2023-01-09T00:51:42.880Z,97491.42
2023-01-09T00:54:14.170Z,97489.55
2023-01-09T00:56:42.679Z,97489.58
2023-01-09T00:59:10.714Z,97486.83
2023-01-09T01:01:38.863Z,97478.55
2023-01-09T01:04:25.885Z,97474.59
2023-01-09T01:07:12.714Z,97473.02
2023-01-09T01:09:40.874Z,97477.15
2023-01-09T01:12:09.366Z,97474.38
2023-01-09T01:14:39.197Z,97470.95
2023-01-09T01:17:08.248Z,97468.91
2023-01-09T01:19:36.721Z,97461.33
2023-01-09T01:22:05.293Z,97450.14
2023-01-09T01:24:33.841Z,97440.70
2023-01-09T01:27:02.299Z,97436.95
2023-01-09T01:29:30.634Z,97437.14
2023-01-09T01:31:58.627Z,97434.70
2023-01-09T01:34:29.536Z,97435.91
2023-01-09T01:36:57.944Z,97435.58
2023-01-09T01:39:26.106Z,97434.38
2023-01-09T01:41:54.271Z,97427.64
2023-01-09T01:44:56.378Z,97425.38
2023-01-09T01:47:33.471Z,97423.12
2023-01-09T01:50:08.728Z,97416.91
2023-01-09T01:52:37.557Z,97412.08
2023-01-09T01:55:08.532Z,97408.98
2023-01-09T01:57:41.420Z,97401.59
2023-01-09T02:00:12.305Z,97399.02
2023-01-09T02:02:40.910Z,97400.41
2023-01-09T02:05:09.447Z,97399.55
2023-01-09T02:07:37.596Z,97396.27
2023-01-09T02:10:06.130Z,97396.09
2023-01-09T02:12:34.084Z,97391.44
2023-01-09T02:15:10.217Z,97389.52
2023-01-09T02:18:12.173Z,97388.29
2023-01-09T02:20:52.131Z,97384.48
2023-01-09T02:23:35.475Z,97382.56
2023-01-09T02:26:28.189Z,97380.65
2023-01-09T02:29:05.370Z,97374.09
2023-01-09T02:31:49.515Z,97372.70
2023-01-09T02:34:30.684Z,97375.27
2023-01-09T02:37:44.165Z,97369.75
2023-01-09T02:40:31.033Z,97365.78
2023-01-09T02:43:00.865Z,97367.16
2023-01-09T02:45:28.941Z,97370.42
2023-01-09T02:47:57.163Z,97366.80
2023-01-09T02:50:37.376Z,97356.61
2023-01-09T02:53:24.212Z,97355.05
2023-01-09T02:56:11.360Z,97354.52
2023-01-09T02:58:42.487Z,97349.49
2023-01-09T03:01:45.010Z,97344.28
2023-01-09T03:04:23.354Z,97343.21
2023-01-09T03:07:08.576Z,97342.35
2023-01-09T03:09:41.474Z,97340.79
2023-01-09T03:12:21.089Z,97337.33
2023-01-09T03:14:53.519Z,97337.52
2023-01-09T03:17:57.508Z,97334.94
2023-01-09T03:20:29.595Z,97333.90
2023-01-09T03:23:01.806Z,97334.42
2023-01-09T03:25:31.337Z,97326.67
2023-01-09T03:28:02.467Z,97324.78
2023-01-09T03:30:32.649Z,97325.47
2023-01-09T03:33:01.202Z,97326.34
2023-01-09T03:35:29.266Z,97323.05
2023-01-09T03:37:59.102Z,97321.30
2023-01-09T03:40:27.101Z,97321.99
2023-01-09T03:42:55.117Z,97321.84
2023-01-09T03:45:23.326Z,97325.09
2023-01-09T03:47:53.018Z,97329.77
2023-01-09T03:50:21.237Z,97323.55
2023-01-09T03:52:49.335Z,97319.60
2023-01-09T03:55:17.355Z,97317.34
2023-01-09T03:57:45.356Z,97310.61
2023-01-09T04:00:14.191Z,97308.02
2023-01-09T04:02:43.349Z,97307.67
2023-01-09T04:05:11.784Z,97308.20
2023-01-09T04:07:40.109Z,97306.64
2023-01-09T04:10:09.679Z,97302.47
2023-01-09T04:12:37.974Z,97300.89
2023-01-09T04:15:06.946Z,97299.67
2023-01-09T04:17:35.151Z,97297.94
2023-01-09T04:20:04.400Z,97299.66
2023-01-09T04:22:32.695Z,97293.98
2023-01-09T04:25:00.964Z,97294.15
2023-01-09T04:27:29.248Z,97297.27
2023-01-09T04:29:57.611Z,97292.61
2023-01-09T04:32:27.794Z,97286.57
2023-01-09T04:34:55.649Z,97282.60
2023-01-09T04:37:24.147Z,97288.95
2023-01-09T04:39:56.150Z,97293.10
2023-01-09T04:42:24.636Z,97283.64
2023-01-09T04:44:54.313Z,97281.57
2023-01-09T04:47:23.915Z,97278.46
2023-01-09T04:49:52.427Z,97284.69
2023-01-09T04:52:20.499Z,97286.58
2023-01-09T04:54:48.563Z,97287.42
2023-01-09T04:57:16.851Z,97285.70
2023-01-09T04:59:45.124Z,97278.25
2023-01-09T05:02:13.317Z,97278.59
2023-01-09T05:04:42.512Z,97270.30
2023-01-09T05:07:10.749Z,97276.20
2023-01-09T05:09:39.145Z,97273.95
2023-01-09T05:12:07.709Z,97272.23
2023-01-09T05:14:35.847Z,97276.05
2023-01-09T05:17:04.168Z,97273.62
2023-01-09T05:19:32.404Z,97270.13
2023-01-09T05:22:00.546Z,97269.94
2023-01-09T05:24:28.960Z,97265.96
2023-01-09T05:26:57.381Z,97268.54
2023-01-09T05:29:25.649Z,97270.97
2023-01-09T05:31:54.129Z,97266.31
2023-01-09T05:34:22.757Z,97267.01
2023-01-09T05:36:50.818Z,97267.88
2023-01-09T05:39:18.940Z,97266.67
2023-01-09T05:41:47.527Z,97270.64
2023-01-09T05:44:15.898Z,97267.17
2023-01-09T05:46:44.129Z,97266.17
2023-01-09T05:49:12.728Z,97264.81
2023-01-09T05:51:41.184Z,97266.05
2023-01-09T05:54:09.931Z,97264.85
2023-01-09T05:56:38.029Z,97260.90
2023-01-09T05:59:06.455Z,97262.64
2023-01-09T06:01:34.794Z,97263.17
2023-01-09T06:04:03.295Z,97260.23
2023-01-09T06:06:31.905Z,97256.80
2023-01-09T06:09:00.303Z,97261.98
2023-01-09T06:11:29.106Z,97263.52
2023-01-09T06:13:58.408Z,97263.17
2023-01-09T06:16:27.014Z,97264.73
2023-01-09T06:18:55.868Z,97263.55
2023-01-09T06:21:25.223Z,97264.94
2023-01-09T06:23:53.702Z,97261.84
2023-01-09T06:26:21.785Z,97257.36
2023-01-09T06:28:50.096Z,97260.66
2023-01-09T06:31:18.249Z,97264.13
2023-01-09T06:33:46.721Z,97266.73
2023-01-09T06:36:15.390Z,97270.20
2023-01-09T06:38:43.792Z,97265.03
2023-01-09T06:41:12.505Z,97263.82
2023-01-09T06:43:40.825Z,97266.08
2023-01-09T06:46:09.973Z,97259.34
2023-01-09T06:48:38.155Z,97258.66
2023-01-09T06:51:06.461Z,97260.58
2023-01-09T06:53:35.477Z,97259.02
2023-01-09T06:56:03.825Z,97258.16
2023-01-09T06:58:32.309Z,97255.06
2023-01-09T07:01:01.113Z,97247.65
2023-01-09T07:03:29.679Z,97244.37
2023-01-09T07:05:57.935Z,97245.75
2023-01-09T07:08:26.315Z,97240.05
2023-01-09T07:10:54.613Z,97242.98
2023-01-09T07:13:23.100Z,97242.98
2023-01-09T07:15:53.837Z,97243.34
2023-01-09T07:18:22.222Z,97239.02
2023-01-09T07:20:51.396Z,97242.30
2023-01-09T07:23:19.549Z,97241.27
2023-01-09T07:25:47.735Z,97237.98
2023-01-09T07:28:16.278Z,97232.44
2023-01-09T07:30:44.766Z,97236.25
2023-01-09T07:33:12.965Z,97233.65
2023-01-09T07:35:42.504Z,97233.11
2023-01-09T07:38:10.928Z,97233.11
2023-01-09T07:40:39.526Z,97231.38
2023-01-09T07:43:08.783Z,97221.67
2023-01-09T07:45:38.008Z,97214.75
2023-01-09T07:48:06.958Z,97218.38
2023-01-09T07:50:35.296Z,97219.58
2023-01-09T07:53:03.759Z,97218.72
2023-01-09T07:55:32.058Z,97217.86
2023-01-09T07:58:00.541Z,97210.25
2023-01-09T08:00:29.048Z,97206.41
2023-01-09T08:02:57.970Z,97200.87
2023-01-09T08:05:27.066Z,97204.14
2023-01-09T08:07:56.056Z,97199.45
2023-01-09T08:10:24.301Z,97196.13
2023-01-09T08:12:52.499Z,97198.17
2023-01-09T08:15:21.160Z,97195.91
2023-01-09T08:17:49.663Z,97185.33
2023-01-09T08:20:19.424Z,97183.71
2023-01-09T08:22:50.977Z,97184.90
2023-01-09T08:25:19.480Z,97184.19
2023-01-09T08:27:48.224Z,97182.97
2023-01-09T08:30:17.601Z,97188.10
2023-01-09T08:32:52.958Z,97181.14
2023-01-09T08:35:21.501Z,97184.03
2023-01-09T08:37:50.245Z,97181.92
2023-01-09T08:40:19.070Z,97176.70
2023-01-09T08:43:06.490Z,97170.09
2023-01-09T08:45:53.713Z,97165.04
2023-01-09T08:48:22.347Z,97159.48
2023-01-09T08:50:51.098Z,97155.27
2023-01-09T08:53:19.798Z,97155.05
2023-01-09T08:55:50.403Z,97155.90
2023-01-09T08:58:18.649Z,97149.77
2023-01-09T09:00:47.030Z,97144.19
2023-01-09T09:03:15.227Z,97134.05
2023-01-09T09:05:46.123Z,97122.21
2023-01-09T09:08:16.839Z,97119.52
2023-01-09T09:10:45.555Z,97113.58
2023-01-09T09:13:14.418Z,97108.04
2023-01-09T09:15:43.226Z,97106.98
2023-01-09T09:18:12.045Z,97104.50
2023-01-09T09:20:40.773Z,97101.80
2023-01-09T09:23:09.433Z,97097.52
2023-01-09T09:25:40.972Z,97103.60
2023-01-09T09:28:10.343Z,97102.44
2023-01-09T09:30:39.559Z,97100.56
2023-01-09T09:33:08.402Z,97098.41
2023-01-09T09:35:37.383Z,97096.52
2023-01-09T09:38:06.196Z,97095.33
2023-01-09T09:41:32.236Z,97090.69
2023-01-09T09:44:26.171Z,97087.34
2023-01-09T09:47:21.332Z,97086.64
2023-01-09T09:50:15.201Z,97082.36
2023-01-09T09:53:05.036Z,97077.98
2023-01-09T09:55:38.624Z,97078.61
2023-01-09T09:58:37.807Z,97073.39
2023-01-09T10:01:09.560Z,97063.98
2023-01-09T10:03:59.425Z,97057.96
2023-01-09T10:06:38.054Z,97050.36
2023-01-09T10:09:33.222Z,97041.73
2023-01-09T10:12:05.580Z,97039.92
2023-01-09T10:14:34.789Z,97042.20
2023-01-09T10:17:19.207Z,97035.05
2023-01-09T10:19:55.279Z,97025.31
2023-01-09T10:22:39.202Z,97022.04
2023-01-09T10:25:18.389Z,97024.84
2023-01-09T10:28:14.672Z,97022.23
2023-01-09T10:31:05.419Z,97019.26
2023-01-09T10:33:33.579Z,97013.05
2023-01-09T10:36:14.329Z,97002.02
2023-01-09T10:38:47.958Z,96992.31
2023-01-09T10:41:28.117Z,96987.20
2023-01-09T10:44:20.675Z,96980.21
2023-01-09T10:46:58.025Z,96973.70
2023-01-09T10:49:27.598Z,96967.84
2023-01-09T10:52:13.288Z,96963.16
2023-01-09T10:54:56.484Z,96964.46
2023-01-09T10:57:28.511Z,96963.51
2023-01-09T10:59:57.709Z,96958.31
2023-01-09T11:02:34.478Z,96947.79
2023-01-09T11:05:03.335Z,96945.41
2023-01-09T11:07:41.893Z,96943.85
2023-01-09T11:10:13.437Z,96942.87
2023-01-09T11:12:43.709Z,96940.24
2023-01-09T11:15:21.181Z,96938.29
2023-01-09T11:17:52.783Z,96934.18
2023-01-09T11:20:29.715Z,96934.80
2023-01-09T11:22:59.149Z,96931.45
2023-01-09T11:25:29.574Z,96930.96
2023-01-09T11:28:08.667Z,96928.65
2023-01-09T11:30:51.257Z,96931.95
2023-01-09T11:33:24.882Z,96933.37
2023-01-09T11:36:01.903Z,96927.71
2023-01-09T11:38:32.222Z,96929.79
2023-01-09T11:41:06.925Z,96926.36
2023-01-09T11:43:38.587Z,96923.44
2023-01-09T11:46:11.710Z,96922.63
2023-01-09T11:48:54.844Z,96921.27
2023-01-09T11:51:30.022Z,96909.67
2023-01-09T11:54:13.428Z,96900.19
2023-01-09T11:56:43.297Z,96891.85
2023-01-09T11:59:18.913Z,96888.83
2023-01-09T12:02:00.076Z,96891.15
2023-01-09T12:04:48.638Z,96886.98
2023-01-09T12:07:22.748Z,96880.57
2023-01-09T12:10:20.418Z,96873.81
2023-01-09T12:13:03.347Z,96871.16
2023-01-09T12:16:01.819Z,96865.05
2023-01-09T12:18:40.908Z,96863.14
2023-01-09T12:25:35.794Z,96856.55
2023-01-09T12:28:39.959Z,96855.85
2023-01-09T12:31:46.685Z,96854.20
2023-01-09T12:34:45.101Z,96849.52
2023-01-09T12:37:53.273Z,96847.14
2023-01-09T12:40:39.028Z,96843.18
2023-01-09T12:43:13.344Z,96841.17
2023-01-09T12:45:48.809Z,96839.97
2023-01-09T12:48:45.545Z,96830.92
2023-01-09T12:51:27.425Z,96839.62
2023-01-09T12:54:05.338Z,96834.95
2023-01-09T12:56:42.459Z,96832.16
2023-01-09T12:59:36.396Z,96831.16
2023-01-09T13:02:17.422Z,96828.42
2023-01-09T13:05:00.544Z,96819.80
2023-01-09T13:07:51.168Z,96821.86
2023-01-09T13:10:33.326Z,96827.73
2023-01-09T13:13:14.770Z,96827.92
2023-01-09T13:15:47.820Z,96837.04
2023-01-09T13:18:25.703Z,96827.30
2023-01-09T13:20:56.837Z,96828.85
2023-01-09T13:23:56.279Z,96823.64
2023-01-09T13:26:33.411Z,96824.82
2023-01-09T13:29:16.710Z,96825.64
2023-01-09T13:31:53.687Z,96828.41
2023-01-09T13:34:28.558Z,96829.80
2023-01-09T13:36:59.195Z,96836.90
2023-01-09T13:39:34.373Z,96833.67
2023-01-09T13:42:24.664Z,96833.80
2023-01-09T13:44:56.799Z,96826.23
2023-01-09T13:47:28.202Z,96822.94
2023-01-09T13:50:06.251Z,96822.42
2023-01-09T13:52:37.021Z,96822.70
2023-01-09T13:55:11.855Z,96822.09
2023-01-09T13:58:14.358Z,96824.74
2023-01-09T14:00:49.380Z,96826.57
2023-01-09T14:03:22.793Z,96826.11
2023-01-09T14:05:51.345Z,96822.23
2023-01-09T14:08:23.007Z,96817.95
2023-01-09T14:10:58.268Z,96820.61
2023-01-09T14:13:30.000Z,96823.61
2023-01-09T14:16:03.987Z,96816.19
2023-01-09T14:18:36.582Z,96819.52
2023-01-09T14:21:11.370Z,96819.05
2023-01-09T14:23:59.226Z,96815.80
2023-01-09T14:26:57.774Z,96807.91
2023-01-09T14:29:29.787Z,96812.41
2023-01-09T14:32:34.028Z,96809.95
2023-01-09T14:35:08.393Z,96812.17
2023-01-09T14:37:40.819Z,96811.42
2023-01-09T14:40:24.119Z,96810.83
2023-01-09T14:42:55.630Z,96814.53
2023-01-09T14:45:27.204Z,96813.14
2023-01-09T14:48:00.994Z,96804.70
2023-01-09T14:50:55.487Z,96806.38
2023-01-09T14:53:31.647Z,96810.88
2023-01-09T14:56:02.548Z,96808.92
2023-01-09T14:58:36.686Z,96807.68
2023-01-09T15:01:07.336Z,96803.00
2023-01-09T15:03:38.942Z,96801.66
2023-01-09T15:06:15.818Z,96796.35
2023-01-09T15:08:56.998Z,96791.73
2023-01-09T15:11:26.929Z,96793.89
2023-01-09T15:14:00.579Z,96793.80
2023-01-09T15:16:30.050Z,96790.36
2023-01-09T15:19:03.200Z,96785.00
2023-01-09T15:21:32.947Z,96785.02
2023-01-09T15:24:27.416Z,96785.03
2023-01-09T15:26:59.208Z,96782.77
2023-01-09T15:29:28.837Z,96784.98
2023-01-09T15:32:06.622Z,96776.92
2023-01-09T15:34:35.422Z,96773.64
2023-01-09T15:37:04.585Z,96768.66
2023-01-09T15:39:37.485Z,96776.55
2023-01-09T15:42:39.698Z,96781.69
2023-01-09T15:45:18.995Z,96780.00
2023-01-09T15:47:47.941Z,96770.34
2023-01-09T15:50:19.233Z,96769.54
2023-01-09T15:52:48.202Z,96766.36
2023-01-09T15:55:26.312Z,96766.29
2023-01-09T15:57:55.597Z,96763.16
2023-01-09T16:00:36.896Z,96753.00
2023-01-09T16:03:25.115Z,96748.44
2023-01-09T16:06:07.093Z,96753.48
2023-01-09T16:08:40.241Z,96753.05
2023-01-09T16:11:20.430Z,96744.90
2023-01-09T16:13:49.249Z,96743.54
2023-01-09T16:16:31.513Z,96743.68
2023-01-09T16:19:00.640Z,96744.02
2023-01-09T16:21:41.218Z,96747.34
2023-01-09T16:24:25.694Z,96743.33
2023-01-09T16:27:27.363Z,96733.57
2023-01-09T16:30:05.696Z,96733.42
2023-01-09T16:32:45.579Z,96729.85
2023-01-09T16:35:17.193Z,96732.20
2023-01-09T16:37:46.457Z,96733.35
2023-01-09T16:40:18.387Z,96728.83
2023-01-09T16:43:05.795Z,96739.32
2023-01-09T16:45:38.739Z,96741.26
2023-01-09T16:48:20.604Z,96737.08
2023-01-09T16:50:49.286Z,96735.94
2023-01-09T16:53:24.403Z,96738.10
2023-01-09T16:55:54.346Z,96740.55
2023-01-09T16:58:35.502Z,96741.05
2023-01-09T17:01:04.140Z,96741.52
2023-01-09T17:03:33.105Z,96737.81
2023-01-09T17:06:03.534Z,96734.84
2023-01-09T17:08:35.670Z,96734.30
2023-01-09T17:11:04.638Z,96734.66
2023-01-09T17:13:33.454Z,96735.55
2023-01-09T17:16:02.024Z,96733.49
2023-01-09T17:18:30.527Z,96735.10
2023-01-09T17:21:01.077Z,96733.71
2023-01-09T17:23:30.733Z,96732.14
2023-01-09T17:26:18.686Z,96730.07
2023-01-09T17:28:50.801Z,96727.98
2023-01-09T17:31:19.552Z,96730.06
2023-01-09T17:33:48.696Z,96725.69
2023-01-09T17:36:27.153Z,96719.23
2023-01-09T17:38:55.731Z,96716.73
2023-01-09T17:41:29.566Z,96717.50
2023-01-09T17:43:59.532Z,96723.16
2023-01-09T17:46:33.843Z,96716.64
2023-01-09T17:49:04.090Z,96709.49
2023-01-09T17:51:33.052Z,96713.18
2023-01-09T17:54:01.432Z,96707.67
2023-01-09T17:56:33.338Z,96702.80
2023-01-09T17:59:02.109Z,96702.84
2023-01-09T18:01:30.584Z,96707.77
2023-01-09T18:03:58.975Z,96713.05
2023-01-09T18:06:27.382Z,96712.45
2023-01-09T18:08:58.021Z,96709.23
2023-01-09T18:11:26.530Z,96705.98
2023-01-09T18:13:55.241Z,96706.02
2023-01-09T18:16:26.129Z,96708.48
2023-01-09T18:18:57.871Z,96711.30
2023-01-09T18:21:28.554Z,96713.45
2023-01-09T18:23:58.445Z,96712.77
2023-01-09T18:26:28.522Z,96711.55
2023-01-09T18:28:59.826Z,96704.76
2023-01-09T18:31:30.709Z,96692.00
2023-01-09T18:34:03.094Z,96685.25
2023-01-09T18:36:32.363Z,96684.29
2023-01-09T18:39:02.907Z,96682.69
2023-01-09T18:41:32.688Z,96679.02
2023-01-09T18:44:02.234Z,96675.30
2023-01-09T18:46:32.378Z,96670.95
2023-01-09T18:49:03.372Z,96672.15
2023-01-09T18:51:34.217Z,96667.13
2023-01-09T18:54:03.338Z,96665.06
2023-01-09T18:56:31.795Z,96669.73
2023-01-09T18:59:00.390Z,96662.64
2023-01-09T19:01:30.575Z,96657.34
2023-01-09T19:04:00.854Z,96659.21
2023-01-09T19:06:30.361Z,96653.81
2023-01-09T19:08:59.750Z,96645.58
2023-01-09T19:11:29.453Z,96644.23
2023-01-09T19:13:58.407Z,96645.02
2023-01-09T19:16:26.527Z,96643.88
2023-01-09T19:18:55.163Z,96642.80
2023-01-09T19:21:26.905Z,96645.93
2023-01-09T19:23:56.829Z,96646.82
2023-01-09T19:26:27.812Z,96650.54
2023-01-09T19:28:58.032Z,96650.02
2023-01-09T19:31:28.871Z,96647.27
2023-01-09T19:33:58.220Z,96644.90
2023-01-09T19:36:27.521Z,96643.02
2023-01-09T19:39:04.984Z,96648.73
2023-01-09T19:41:33.889Z,96645.02
2023-01-09T19:44:03.252Z,96646.89
2023-01-09T19:46:33.720Z,96655.13
2023-01-09T19:49:04.897Z,96658.63
2023-01-09T19:51:33.998Z,96656.15
2023-01-09T19:56:32.722Z,96654.43
2023-01-09T19:59:03.745Z,96649.41
2023-01-09T20:01:35.045Z,96644.77
2023-01-09T20:04:08.040Z,96640.79
2023-01-09T20:06:41.579Z,96638.69
2023-01-09T20:09:14.033Z,96634.89
2023-01-09T20:11:44.936Z,96631.65
2023-01-09T20:14:19.026Z,96633.66
2023-01-09T20:16:48.660Z,96638.30
2023-01-09T20:19:16.900Z,96638.42
2023-01-09T20:21:45.031Z,96636.13
2023-01-09T20:24:15.364Z,96626.52
2023-01-09T20:26:44.103Z,96624.63
2023-01-09T20:29:12.858Z,96623.19
2023-01-09T20:31:41.243Z,96629.95
2023-01-09T20:34:12.490Z,96635.89
2023-01-09T20:36:40.897Z,96635.77
2023-01-09T20:39:11.768Z,96635.39
2023-01-09T20:41:40.255Z,96633.06
2023-01-09T20:44:14.245Z,96627.92
2023-01-09T20:46:47.528Z,96627.14
2023-01-09T20:49:18.514Z,96626.14
2023-01-09T20:51:50.340Z,96625.60
2023-01-09T20:54:21.654Z,96624.54
2023-01-09T20:56:50.964Z,96616.73
2023-01-09T20:59:23.335Z,96615.56
2023-01-09T21:01:51.817Z,96613.29
2023-01-09T21:04:20.241Z,96610.98
2023-01-09T21:06:50.210Z,96605.74
2023-01-09T21:09:18.578Z,96598.10
2023-01-09T21:11:46.774Z,96588.73
2023-01-09T21:14:14.861Z,96589.77
2023-01-09T21:16:45.465Z,96598.90
2023-01-09T21:19:19.595Z,96594.64
2023-01-09T21:21:47.744Z,96589.52
2023-01-09T21:24:16.036Z,96592.88
2023-01-09T21:26:44.095Z,96588.63
2023-01-09T21:29:13.042Z,96596.33
2023-01-09T21:31:41.180Z,96606.30
2023-01-09T21:34:14.793Z,96607.77
2023-01-09T21:36:45.187Z,96607.70
2023-01-09T21:39:13.423Z,96608.98
2023-01-09T21:42:00.055Z,96606.65
2023-01-09T21:44:46.838Z,96604.55
2023-01-09T21:47:15.246Z,96601.09
2023-01-09T21:49:44.899Z,96598.28
2023-01-09T21:52:14.243Z,96606.02
2023-01-09T21:54:42.519Z,96607.00
2023-01-09T21:57:11.154Z,96609.17
2023-01-09T21:59:39.393Z,96609.42
2023-01-09T22:02:12.085Z,96607.21
2023-01-09T22:04:43.030Z,96609.14
2023-01-09T22:07:11.322Z,96612.84
2023-01-09T22:09:39.695Z,96611.14
2023-01-09T22:12:09.103Z,96604.45
2023-01-09T22:14:38.864Z,96599.66
2023-01-09T22:17:07.882Z,96598.52
2023-01-09T22:19:35.972Z,96594.06
2023-01-09T22:22:07.331Z,96590.08
2023-01-09T22:24:35.713Z,96587.48
2023-01-09T22:27:04.276Z,96579.67
2023-01-09T22:29:32.271Z,96580.01
2023-01-09T22:32:00.582Z,96581.91
2023-01-09T22:34:29.001Z,96592.16
2023-01-09T22:36:57.336Z,96588.56
2023-01-09T22:39:25.653Z,96590.41
2023-01-09T22:41:55.443Z,96593.59
2023-01-09T22:44:23.472Z,96579.95
2023-01-09T22:46:51.724Z,96572.16
2023-01-09T22:49:24.181Z,96573.00
2023-01-09T22:51:53.201Z,96574.86
2023-01-09T22:54:21.334Z,96566.67
2023-01-09T22:56:50.443Z,96563.57
2023-01-09T22:59:18.652Z,96560.51
2023-01-09T23:01:46.756Z,96555.88
2023-01-09T23:04:16.817Z,96549.36
2023-01-09T23:06:44.793Z,96543.36
2023-01-09T23:09:12.954Z,96533.54
2023-01-09T23:11:59.770Z,96525.98
2023-01-09T23:14:29.749Z,96523.40
2023-01-09T23:16:58.036Z,96527.56
2023-01-09T23:19:26.045Z,96528.23
2023-01-09T23:21:54.096Z,96532.91
2023-01-09T23:24:22.377Z,96537.23
2023-01-09T23:26:52.333Z,96540.38
2023-01-09T23:29:22.137Z,96544.09
2023-01-09T23:31:53.693Z,96547.11
2023-01-09T23:34:25.818Z,96540.52
2023-01-09T23:36:57.483Z,96554.73
2023-01-09T23:39:25.944Z,96542.77
2023-01-09T23:42:12.803Z,96546.52
2023-01-09T23:44:41.202Z,96539.05
2023-01-09T23:47:10.120Z,96532.96
2023-01-09T23:49:38.982Z,96534.83
2023-01-09T23:52:08.893Z,96536.48
2023-01-09T23:54:37.028Z,96532.80
2023-01-09T23:57:05.373Z,96530.49
2023-01-09T23:59:33.365Z,96530.48
